Patriot — WDC2859 — position and weather

sailwx.info

Track history (hours):
 
Tides and Currents Weather Stations Pressure Air Temp Water Temp Dewpoint Dewpoint Depression Visibility Wind Speed Wind Dir Waves Ship Positions

Patriot

Owner: AMNAV Maritime Corporation, Oakland, CA. More information available from US FCC via Universal Licensing System and Coast Guard Vessel Documentation Center.

Last reported at 2016-Feb-06 18:14 UTC. Time now 2016-Feb-07 13:12 UTC.
Position N 38°02' W 121°52'.

Length 31 m; draft 4.6 m.

Type: Tug. MMSI: 366998680.

Date/timePositionNaut miles runAvg speedWind from/ knotsBaromVisibWave heightAir tempDewpointWater temp
2016-Feb-06 18:14N 38°02' W 121°52'1 1.1
2016-Feb-06 17:22N 38°02' W 121°51'16 1.2
2016-Feb-06 04:31N 38°03' W 122°11'1 1.4
2016-Feb-06 03:33N 38°03' W 122°13'0 0.0
2016-Feb-06 02:10N 38°03' W 122°13'4 0.3
2016-Feb-05 14:32N 38°02' W 122°09'2 0.1
2016-Feb-04 17:32N 38°03' W 122°10'9 9.2
2016-Feb-04 16:33N 38°02' W 122°22'8 7.7
2016-Feb-04 15:33N 37°54' W 122°24'0 0.1
2016-Feb-04 14:34N 37°54' W 122°24'0 0.0
2016-Feb-04 13:33N 37°54' W 122°24'0 0.0
2016-Feb-04 12:33N 37°54' W 122°24'0 0.0
2016-Feb-04 11:34N 37°54' W 122°24'1 1.4
2016-Feb-04 10:34N 37°54' W 122°22'3 2.9
2016-Feb-04 09:33N 37°54' W 122°25'6 6.3
2016-Feb-04 08:34N 37°49' W 122°21'2 1.8
2016-Feb-04 07:33N 37°49' W 122°19'0 0.0
2016-Feb-04 06:33N 37°49' W 122°19'0 0.0
2016-Feb-04 05:33N 37°49' W 122°19'0 0.0
2016-Feb-04 04:33N 37°49' W 122°19'0 0.0
2016-Feb-04 03:33N 37°49' W 122°19'0 0.0
2016-Feb-04 02:33N 37°49' W 122°19'0 0.0
2016-Feb-04 01:33N 37°49' W 122°19'0 0.0
2016-Feb-04 00:33N 37°49' W 122°19'0 0.0
2016-Feb-03 23:33N 37°49' W 122°19'0 0.0
2016-Feb-03 22:33N 37°49' W 122°19'0 0.0
2016-Feb-03 21:33N 37°49' W 122°19'0 0.0
2016-Feb-03 20:33N 37°49' W 122°19'0 0.0
2016-Feb-03 19:33N 37°49' W 122°19'0 0.0
2016-Feb-03 18:33N 37°49' W 122°19'0 0.0
2016-Feb-03 17:33N 37°49' W 122°19'0 0.0
2016-Feb-03 16:33N 37°49' W 122°19'0 0.0
2016-Feb-03 15:33N 37°49' W 122°19'0 0.0
2016-Feb-03 14:33N 37°49' W 122°19'0 0.0
2016-Feb-03 13:33N 37°49' W 122°19'0 0.0
2016-Feb-03 12:33N 37°49' W 122°19'0 0.0
2016-Feb-03 11:33N 37°49' W 122°19'0 0.0
2016-Feb-03 10:33N 37°49' W 122°19'0 0.0
2016-Feb-03 09:33N 37°49' W 122°19'0 0.0
2016-Feb-03 08:33N 37°49' W 122°19'0 0.0
2016-Feb-03 07:33N 37°49' W 122°19'0 0.0
2016-Feb-03 06:33N 37°49' W 122°19'0 0.0
2016-Feb-03 05:33N 37°49' W 122°19'0 0.0
2016-Feb-03 04:33N 37°49' W 122°19'0 0.0
2016-Feb-03 03:33N 37°49' W 122°19'0 0.0
2016-Feb-03 02:33N 37°49' W 122°19'0 0.0
2016-Feb-03 01:33N 37°49' W 122°19'1 0.7
2016-Feb-03 00:32N 37°49' W 122°19'1 1.2
2016-Feb-02 23:33N 37°48' W 122°21'2 1.8
2016-Feb-02 22:33N 37°49' W 122°19'0 0.0
2016-Feb-02 21:33N 37°49' W 122°19'0 0.0
2016-Feb-02 20:33N 37°49' W 122°19'0 0.0
2016-Feb-02 19:33N 37°49' W 122°19'0 0.0
2016-Feb-02 18:33N 37°49' W 122°19'0 0.0
2016-Feb-02 17:33N 37°49' W 122°19'0 0.0
2016-Feb-02 16:33N 37°49' W 122°19'0 0.2
2016-Feb-02 15:34N 37°49' W 122°19'0 0.1
2016-Feb-02 14:33N 37°49' W 122°19'1 0.8
2016-Feb-02 13:33N 37°49' W 122°20'1 1.0
2016-Feb-02 12:34N 37°49' W 122°19'0 0.0
2016-Feb-02 11:33N 37°49' W 122°19'1 0.7
2016-Feb-02 10:33N 37°49' W 122°19'0 0.0
2016-Feb-02 09:33N 37°49' W 122°19'0 0.0
2016-Feb-02 08:34N 37°49' W 122°19'4 4.4
2016-Feb-02 07:34N 37°52' W 122°23'3 3.2
2016-Feb-02 06:33N 37°55' W 122°24'1 0.7
2016-Feb-02 05:33N 37°54' W 122°24'0 0.0
2016-Feb-02 04:33N 37°54' W 122°24'0 0.0
2016-Feb-02 03:34N 37°54' W 122°24'0 0.0
2016-Feb-02 02:33N 37°54' W 122°24'0 0.0
2016-Feb-02 01:34N 37°54' W 122°24'0 0.0
2016-Feb-02 00:33N 37°54' W 122°24'1 1.2
2016-Feb-01 23:34N 37°54' W 122°22'2 2.0
2016-Feb-01 22:33N 37°53' W 122°24'5 5.2
2016-Feb-01 21:33N 37°49' W 122°19'0 0.0
2016-Feb-01 20:34N 37°49' W 122°19'0 0.0
2016-Feb-01 19:34N 37°49' W 122°19'0 0.0
2016-Feb-01 18:34N 37°49' W 122°19'0 0.0
2016-Feb-01 17:34N 37°49' W 122°19'0 0.0
2016-Feb-01 16:34N 37°49' W 122°19'0 0.0
2016-Feb-01 15:34N 37°49' W 122°19'2 1.9
2016-Feb-01 14:33N 37°49' W 122°21'7 7.4
2016-Feb-01 13:33N 37°55' W 122°25'1 1.1
2016-Feb-01 12:33N 37°54' W 122°25'9 9.2
2016-Feb-01 11:33N 38°02' W 122°19'9 0.3
2016-Jan-31 07:11N 38°02' W 122°08'5 7.5
2016-Jan-31 06:29N 38°04' W 122°15'7 7.8
2016-Jan-31 05:33N 38°01' W 122°23'7 6.6
2016-Jan-31 04:33N 37°54' W 122°23'1 1.2
2016-Jan-31 03:33N 37°55' W 122°22'6 5.8
2016-Jan-31 02:33N 37°49' W 122°21'2 2.1
2016-Jan-31 01:34N 37°49' W 122°19'0 0.0
2016-Jan-31 00:34N 37°49' W 122°19'0 0.0
2016-Jan-30 23:34N 37°49' W 122°19'0 0.0
2016-Jan-30 22:34N 37°49' W 122°19'0 0.0
2016-Jan-30 21:34N 37°49' W 122°19'0 0.0
2016-Jan-30 20:34N 37°49' W 122°19'0 0.0
2016-Jan-30 19:34N 37°49' W 122°19'0 0.0
2016-Jan-30 18:34N 37°49' W 122°19'0 0.0
2016-Jan-30 17:34N 37°49' W 122°19'0 0.0
2016-Jan-30 16:34N 37°49' W 122°19'0 0.0
2016-Jan-30 15:34N 37°49' W 122°19'1 1.5
2016-Jan-30 14:33N 37°49' W 122°20'2 1.5
2016-Jan-30 13:33N 37°48' W 122°22'3 2.9
2016-Jan-30 12:33N 37°49' W 122°19'0 0.0
2016-Jan-30 11:34N 37°49' W 122°19'0 0.0
2016-Jan-30 10:34N 37°49' W 122°19'0 0.0
2016-Jan-30 09:33N 37°49' W 122°19'0 0.0
2016-Jan-30 08:33N 37°49' W 122°19'0 0.0
2016-Jan-30 07:33N 37°49' W 122°19'0 0.0
2016-Jan-30 06:33N 37°49' W 122°19'0 0.0
2016-Jan-30 05:33N 37°49' W 122°19'0 0.0
2016-Jan-30 04:33N 37°49' W 122°19'0 0.0
2016-Jan-30 03:33N 37°49' W 122°19'0 0.0
2016-Jan-30 02:34N 37°49' W 122°19'0 0.0
2016-Jan-30 01:33N 37°49' W 122°19'2 1.8
2016-Jan-30 00:33N 37°49' W 122°21'6 5.7
2016-Jan-29 23:33N 37°54' W 122°22'0 0.4
2016-Jan-29 22:33N 37°54' W 122°22'3 3.1
2016-Jan-29 21:33N 37°56' W 122°26'6 6.4
2016-Jan-29 20:33N 37°50' W 122°22'3 2.8
2016-Jan-29 19:33N 37°49' W 122°19'0 0.0
2016-Jan-29 18:33N 37°49' W 122°19'0 0.0
2016-Jan-29 17:33N 37°49' W 122°19'0 0.0
2016-Jan-29 16:33N 37°49' W 122°19'0 0.0
2016-Jan-29 15:33N 37°49' W 122°19'0 0.0
2016-Jan-29 14:33N 37°49' W 122°19'3 2.6
2016-Jan-29 13:33N 37°50' W 122°22'5 4.6
2016-Jan-29 12:33N 37°54' W 122°24'1 1.5
2016-Jan-29 11:33N 37°55' W 122°22'5 5.4
2016-Jan-29 10:33N 37°50' W 122°22'2 2.4
2016-Jan-29 09:33N 37°49' W 122°19'0 0.0
2016-Jan-29 08:34N 37°49' W 122°19'0 0.0
2016-Jan-29 07:33N 37°49' W 122°19'0 0.0
2016-Jan-29 06:33N 37°49' W 122°19'0 0.0
2016-Jan-29 05:33N 37°49' W 122°19'0 0.0
2016-Jan-29 04:33N 37°49' W 122°19'0 0.0
2016-Jan-29 03:33N 37°49' W 122°19'0 0.0
2016-Jan-29 02:33N 37°49' W 122°19'0 0.0
2016-Jan-29 01:33N 37°49' W 122°19'0 0.0
2016-Jan-29 00:33N 37°49' W 122°19'0 0.0
2016-Jan-28 23:33N 37°49' W 122°19'0 0.0
2016-Jan-28 22:33N 37°49' W 122°19'0 0.0
2016-Jan-28 21:33N 37°49' W 122°19'0 0.0
2016-Jan-28 20:33N 37°49' W 122°19'0 0.0
2016-Jan-28 19:33N 37°49' W 122°19'0 0.0
2016-Jan-28 18:33N 37°49' W 122°19'0 0.0
2016-Jan-28 17:33N 37°49' W 122°19'0 0.0
2016-Jan-28 16:33N 37°49' W 122°19'0 0.0
2016-Jan-28 15:34N 37°49' W 122°19'0 0.0
2016-Jan-28 14:33N 37°49' W 122°19'0 0.0
2016-Jan-28 13:33N 37°49' W 122°19'2 2.0
2016-Jan-28 12:33N 37°49' W 122°21'6 5.9
2016-Jan-28 11:33N 37°55' W 122°22'0 0.0
2016-Jan-28 10:33N 37°55' W 122°22'1 0.5
2016-Jan-28 09:33N 37°55' W 122°22'1 1.1
2016-Jan-28 08:33N 37°55' W 122°23'0 0.0
2016-Jan-28 07:33N 37°55' W 122°23'0 0.0
2016-Jan-28 06:33N 37°55' W 122°23'0 0.0
2016-Jan-28 05:33N 37°55' W 122°23'0 0.4
2016-Jan-28 04:33N 37°54' W 122°24'7 6.5
2016-Jan-28 03:33N 37°49' W 122°19'1 0.6
2016-Jan-28 02:33N 37°49' W 122°19'0 0.0
2016-Jan-28 01:33N 37°49' W 122°19'0 0.2
2016-Jan-28 00:33N 37°49' W 122°19'2 2.2
2016-Jan-27 23:33N 37°48' W 122°22'3 3.2
2016-Jan-27 22:33N 37°47' W 122°18'1 1.0
2016-Jan-27 21:33N 37°48' W 122°18'0 0.0
2016-Jan-27 20:33N 37°48' W 122°18'0 0.0
2016-Jan-27 19:33N 37°48' W 122°18'2 1.9
2016-Jan-27 18:33N 37°49' W 122°19'  
Track history (hours):
 
Tides and Currents Weather Stations Pressure Air Temp Water Temp Dewpoint Dewpoint Depression Visibility Wind Speed Wind Dir Waves Ship Positions

Patriot

Owner: AMNAV Maritime Corporation, Oakland, CA. More information available from US FCC via Universal Licensing System and Coast Guard Vessel Documentation Center.

Last reported at 2016-Feb-06 18:14 UTC. Time now 2016-Feb-07 13:12 UTC.
Position N 38°02' W 121°52'.

Length 31 m; draft 4.6 m.

Type: Tug. MMSI: 366998680.

Date/timePositionNaut miles runAvg speedWind from/ knotsBaromVisibWave heightAir tempDewpointWater temp
2016-Feb-06 18:14N 38°02' W 121°52'1 1.1
2016-Feb-06 17:22N 38°02' W 121°51'16 1.2
2016-Feb-06 04:31N 38°03' W 122°11'1 1.4
2016-Feb-06 03:33N 38°03' W 122°13'0 0.0
2016-Feb-06 02:10N 38°03' W 122°13'4 0.3
2016-Feb-05 14:32N 38°02' W 122°09'2 0.1
2016-Feb-04 17:32N 38°03' W 122°10'9 9.2
2016-Feb-04 16:33N 38°02' W 122°22'8 7.7
2016-Feb-04 15:33N 37°54' W 122°24'0 0.1
2016-Feb-04 14:34N 37°54' W 122°24'0 0.0
2016-Feb-04 13:33N 37°54' W 122°24'0 0.0
2016-Feb-04 12:33N 37°54' W 122°24'0 0.0
2016-Feb-04 11:34N 37°54' W 122°24'1 1.4
2016-Feb-04 10:34N 37°54' W 122°22'3 2.9
2016-Feb-04 09:33N 37°54' W 122°25'6 6.3
2016-Feb-04 08:34N 37°49' W 122°21'2 1.8
2016-Feb-04 07:33N 37°49' W 122°19'0 0.0
2016-Feb-04 06:33N 37°49' W 122°19'0 0.0
2016-Feb-04 05:33N 37°49' W 122°19'0 0.0
2016-Feb-04 04:33N 37°49' W 122°19'0 0.0
2016-Feb-04 03:33N 37°49' W 122°19'0 0.0
2016-Feb-04 02:33N 37°49' W 122°19'0 0.0
2016-Feb-04 01:33N 37°49' W 122°19'0 0.0
2016-Feb-04 00:33N 37°49' W 122°19'0 0.0
2016-Feb-03 23:33N 37°49' W 122°19'0 0.0
2016-Feb-03 22:33N 37°49' W 122°19'0 0.0
2016-Feb-03 21:33N 37°49' W 122°19'0 0.0
2016-Feb-03 20:33N 37°49' W 122°19'0 0.0
2016-Feb-03 19:33N 37°49' W 122°19'0 0.0
2016-Feb-03 18:33N 37°49' W 122°19'0 0.0
2016-Feb-03 17:33N 37°49' W 122°19'0 0.0
2016-Feb-03 16:33N 37°49' W 122°19'0 0.0
2016-Feb-03 15:33N 37°49' W 122°19'0 0.0
2016-Feb-03 14:33N 37°49' W 122°19'0 0.0
2016-Feb-03 13:33N 37°49' W 122°19'0 0.0
2016-Feb-03 12:33N 37°49' W 122°19'0 0.0
2016-Feb-03 11:33N 37°49' W 122°19'0 0.0
2016-Feb-03 10:33N 37°49' W 122°19'0 0.0
2016-Feb-03 09:33N 37°49' W 122°19'0 0.0
2016-Feb-03 08:33N 37°49' W 122°19'0 0.0
2016-Feb-03 07:33N 37°49' W 122°19'0 0.0
2016-Feb-03 06:33N 37°49' W 122°19'0 0.0
2016-Feb-03 05:33N 37°49' W 122°19'0 0.0
2016-Feb-03 04:33N 37°49' W 122°19'0 0.0
2016-Feb-03 03:33N 37°49' W 122°19'0 0.0
2016-Feb-03 02:33N 37°49' W 122°19'0 0.0
2016-Feb-03 01:33N 37°49' W 122°19'1 0.7
2016-Feb-03 00:32N 37°49' W 122°19'1 1.2
2016-Feb-02 23:33N 37°48' W 122°21'2 1.8
2016-Feb-02 22:33N 37°49' W 122°19'0 0.0
2016-Feb-02 21:33N 37°49' W 122°19'0 0.0
2016-Feb-02 20:33N 37°49' W 122°19'0 0.0
2016-Feb-02 19:33N 37°49' W 122°19'0 0.0
2016-Feb-02 18:33N 37°49' W 122°19'0 0.0
2016-Feb-02 17:33N 37°49' W 122°19'0 0.0
2016-Feb-02 16:33N 37°49' W 122°19'0 0.2
2016-Feb-02 15:34N 37°49' W 122°19'0 0.1
2016-Feb-02 14:33N 37°49' W 122°19'1 0.8
2016-Feb-02 13:33N 37°49' W 122°20'1 1.0
2016-Feb-02 12:34N 37°49' W 122°19'0 0.0
2016-Feb-02 11:33N 37°49' W 122°19'1 0.7
2016-Feb-02 10:33N 37°49' W 122°19'0 0.0
2016-Feb-02 09:33N 37°49' W 122°19'0 0.0
2016-Feb-02 08:34N 37°49' W 122°19'4 4.4
2016-Feb-02 07:34N 37°52' W 122°23'3 3.2
2016-Feb-02 06:33N 37°55' W 122°24'1 0.7
2016-Feb-02 05:33N 37°54' W 122°24'0 0.0
2016-Feb-02 04:33N 37°54' W 122°24'0 0.0
2016-Feb-02 03:34N 37°54' W 122°24'0 0.0
2016-Feb-02 02:33N 37°54' W 122°24'0 0.0
2016-Feb-02 01:34N 37°54' W 122°24'0 0.0
2016-Feb-02 00:33N 37°54' W 122°24'1 1.2
2016-Feb-01 23:34N 37°54' W 122°22'2 2.0
2016-Feb-01 22:33N 37°53' W 122°24'5 5.2
2016-Feb-01 21:33N 37°49' W 122°19'0 0.0
2016-Feb-01 20:34N 37°49' W 122°19'0 0.0
2016-Feb-01 19:34N 37°49' W 122°19'0 0.0
2016-Feb-01 18:34N 37°49' W 122°19'0 0.0
2016-Feb-01 17:34N 37°49' W 122°19'0 0.0
2016-Feb-01 16:34N 37°49' W 122°19'0 0.0
2016-Feb-01 15:34N 37°49' W 122°19'2 1.9
2016-Feb-01 14:33N 37°49' W 122°21'7 7.4
2016-Feb-01 13:33N 37°55' W 122°25'1 1.1
2016-Feb-01 12:33N 37°54' W 122°25'9 9.2
2016-Feb-01 11:33N 38°02' W 122°19'9 0.3
2016-Jan-31 07:11N 38°02' W 122°08'5 7.5
2016-Jan-31 06:29N 38°04' W 122°15'7 7.8
2016-Jan-31 05:33N 38°01' W 122°23'7 6.6
2016-Jan-31 04:33N 37°54' W 122°23'1 1.2
2016-Jan-31 03:33N 37°55' W 122°22'6 5.8
2016-Jan-31 02:33N 37°49' W 122°21'2 2.1
2016-Jan-31 01:34N 37°49' W 122°19'0 0.0
2016-Jan-31 00:34N 37°49' W 122°19'0 0.0
2016-Jan-30 23:34N 37°49' W 122°19'0 0.0
2016-Jan-30 22:34N 37°49' W 122°19'0 0.0
2016-Jan-30 21:34N 37°49' W 122°19'0 0.0
2016-Jan-30 20:34N 37°49' W 122°19'0 0.0
2016-Jan-30 19:34N 37°49' W 122°19'0 0.0
2016-Jan-30 18:34N 37°49' W 122°19'0 0.0
2016-Jan-30 17:34N 37°49' W 122°19'0 0.0
2016-Jan-30 16:34N 37°49' W 122°19'0 0.0
2016-Jan-30 15:34N 37°49' W 122°19'1 1.5
2016-Jan-30 14:33N 37°49' W 122°20'2 1.5
2016-Jan-30 13:33N 37°48' W 122°22'3 2.9
2016-Jan-30 12:33N 37°49' W 122°19'0 0.0
2016-Jan-30 11:34N 37°49' W 122°19'0 0.0
2016-Jan-30 10:34N 37°49' W 122°19'0 0.0
2016-Jan-30 09:33N 37°49' W 122°19'0 0.0
2016-Jan-30 08:33N 37°49' W 122°19'0 0.0
2016-Jan-30 07:33N 37°49' W 122°19'0 0.0
2016-Jan-30 06:33N 37°49' W 122°19'0 0.0
2016-Jan-30 05:33N 37°49' W 122°19'0 0.0
2016-Jan-30 04:33N 37°49' W 122°19'0 0.0
2016-Jan-30 03:33N 37°49' W 122°19'0 0.0
2016-Jan-30 02:34N 37°49' W 122°19'0 0.0
2016-Jan-30 01:33N 37°49' W 122°19'2 1.8
2016-Jan-30 00:33N 37°49' W 122°21'6 5.7
2016-Jan-29 23:33N 37°54' W 122°22'0 0.4
2016-Jan-29 22:33N 37°54' W 122°22'3 3.1
2016-Jan-29 21:33N 37°56' W 122°26'6 6.4
2016-Jan-29 20:33N 37°50' W 122°22'3 2.8
2016-Jan-29 19:33N 37°49' W 122°19'0 0.0
2016-Jan-29 18:33N 37°49' W 122°19'0 0.0
2016-Jan-29 17:33N 37°49' W 122°19'0 0.0
2016-Jan-29 16:33N 37°49' W 122°19'0 0.0
2016-Jan-29 15:33N 37°49' W 122°19'0 0.0
2016-Jan-29 14:33N 37°49' W 122°19'3 2.6
2016-Jan-29 13:33N 37°50' W 122°22'5 4.6
2016-Jan-29 12:33N 37°54' W 122°24'1 1.5
2016-Jan-29 11:33N 37°55' W 122°22'5 5.4
2016-Jan-29 10:33N 37°50' W 122°22'2 2.4
2016-Jan-29 09:33N 37°49' W 122°19'0 0.0
2016-Jan-29 08:34N 37°49' W 122°19'0 0.0
2016-Jan-29 07:33N 37°49' W 122°19'0 0.0
2016-Jan-29 06:33N 37°49' W 122°19'0 0.0
2016-Jan-29 05:33N 37°49' W 122°19'0 0.0
2016-Jan-29 04:33N 37°49' W 122°19'0 0.0
2016-Jan-29 03:33N 37°49' W 122°19'0 0.0
2016-Jan-29 02:33N 37°49' W 122°19'0 0.0
2016-Jan-29 01:33N 37°49' W 122°19'0 0.0
2016-Jan-29 00:33N 37°49' W 122°19'0 0.0
2016-Jan-28 23:33N 37°49' W 122°19'0 0.0
2016-Jan-28 22:33N 37°49' W 122°19'0 0.0
2016-Jan-28 21:33N 37°49' W 122°19'0 0.0
2016-Jan-28 20:33N 37°49' W 122°19'0 0.0
2016-Jan-28 19:33N 37°49' W 122°19'0 0.0
2016-Jan-28 18:33N 37°49' W 122°19'0 0.0
2016-Jan-28 17:33N 37°49' W 122°19'0 0.0
2016-Jan-28 16:33N 37°49' W 122°19'0 0.0
2016-Jan-28 15:34N 37°49' W 122°19'0 0.0
2016-Jan-28 14:33N 37°49' W 122°19'0 0.0
2016-Jan-28 13:33N 37°49' W 122°19'2 2.0
2016-Jan-28 12:33N 37°49' W 122°21'6 5.9
2016-Jan-28 11:33N 37°55' W 122°22'0 0.0
2016-Jan-28 10:33N 37°55' W 122°22'1 0.5
2016-Jan-28 09:33N 37°55' W 122°22'1 1.1
2016-Jan-28 08:33N 37°55' W 122°23'0 0.0
2016-Jan-28 07:33N 37°55' W 122°23'0 0.0
2016-Jan-28 06:33N 37°55' W 122°23'0 0.0
2016-Jan-28 05:33N 37°55' W 122°23'0 0.4
2016-Jan-28 04:33N 37°54' W 122°24'7 6.5
2016-Jan-28 03:33N 37°49' W 122°19'1 0.6
2016-Jan-28 02:33N 37°49' W 122°19'0 0.0
2016-Jan-28 01:33N 37°49' W 122°19'0 0.2
2016-Jan-28 00:33N 37°49' W 122°19'2 2.2
2016-Jan-27 23:33N 37°48' W 122°22'3 3.2
2016-Jan-27 22:33N 37°47' W 122°18'1 1.0
2016-Jan-27 21:33N 37°48' W 122°18'0 0.0
2016-Jan-27 20:33N 37°48' W 122°18'0 0.0
2016-Jan-27 19:33N 37°48' W 122°18'2 1.9
2016-Jan-27 18:33N 37°49' W 122°19'  

Dump ship's entire track history